Time,TemperatureF,DewpointF,PressureIn,WindDirection,WindDirectionDegrees,WindSpeedMPH,WindSpeedGustMPH,Humidity,HourlyPrecipIn,Conditions,Clouds,dailyrainin,SolarRadiationWatts/m^2,SoftwareType,DateUTC
2013-02-26 00:01:00,24.0,22.0,-100.00,SW,220,2.0,6.0,92,0.00,,,0.19,0.000000,,2013-02-26 08:01:00,
2013-02-26 00:11:00,24.0,22.0,-100.00,SW,220,2.0,6.0,92,0.00,,,0.19,0.000000,,2013-02-26 08:11:00,
2013-02-26 00:21:00,24.0,22.0,-100.00,SW,220,2.0,6.0,92,0.00,,,0.19,0.000000,,2013-02-26 08:21:00,
2013-02-26 00:31:00,25.0,22.0,-100.00,NE,46,3.0,9.0,90,0.00,,,-99.99,0.000000,,2013-02-26 08:31:00,
2013-02-26 00:52:00,25.0,22.0,-100.00,NE,46,3.0,9.0,90,0.00,,,-99.99,0.000000,,2013-02-26 08:52:00,
2013-02-26 01:01:00,25.0,22.0,-100.00,NE,46,3.0,9.0,90,0.00,,,-99.99,0.000000,,2013-02-26 09:01:00,
2013-02-26 01:11:00,25.0,22.0,-100.00,NE,46,3.0,9.0,90,0.00,,,-99.99,0.000000,,2013-02-26 09:11:00,
2013-02-26 01:21:00,25.0,22.0,-100.00,NE,46,3.0,9.0,90,0.00,,,-99.99,0.000000,,2013-02-26 09:21:00,
2013-02-26 01:31:00,26.0,23.0,-100.00,NE,56,2.0,9.0,87,0.00,,,0.19,0.000000,,2013-02-26 09:31:00,
2013-02-26 01:52:00,26.0,23.0,-100.00,NE,56,2.0,9.0,87,0.00,,,0.19,0.000000,,2013-02-26 09:52:00,
2013-02-26 02:01:00,26.0,23.0,-100.00,NE,56,2.0,9.0,87,0.00,,,0.19,0.000000,,2013-02-26 10:01:00,
2013-02-26 02:11:00,26.0,23.0,-100.00,NE,56,2.0,9.0,87,0.00,,,0.19,0.000000,,2013-02-26 10:11:00,
2013-02-26 02:21:00,26.0,23.0,-100.00,NE,56,2.0,9.0,87,0.00,,,0.19,0.000000,,2013-02-26 10:21:00,
2013-02-26 02:31:00,26.0,23.0,-100.00,SSW,203,3.0,10.0,87,0.00,,,0.19,0.000000,,2013-02-26 10:31:00,
2013-02-26 02:52:00,26.0,23.0,-100.00,SSW,203,3.0,10.0,87,0.00,,,0.19,0.000000,,2013-02-26 10:52:00,
2013-02-26 03:01:00,26.0,23.0,-100.00,SSW,203,3.0,10.0,87,0.00,,,0.19,0.000000,,2013-02-26 11:01:00,
2013-02-26 03:11:00,26.0,23.0,-100.00,SSW,203,3.0,10.0,87,0.00,,,0.19,0.000000,,2013-02-26 11:11:00,
2013-02-26 03:21:00,26.0,23.0,-100.00,SSW,203,3.0,10.0,87,0.00,,,0.19,0.000000,,2013-02-26 11:21:00,
2013-02-26 03:31:00,26.0,22.0,-100.00,SSW,196,4.0,9.0,84,0.00,,,-99.99,0.000000,,2013-02-26 11:31:00,
2013-02-26 03:52:00,26.0,22.0,-100.00,SSW,196,4.0,9.0,84,0.00,,,-99.99,0.000000,,2013-02-26 11:52:00,
2013-02-26 04:01:00,26.0,22.0,-100.00,SSW,196,4.0,9.0,84,0.00,,,-99.99,0.000000,,2013-02-26 12:01:00,
2013-02-26 04:11:00,26.0,22.0,-100.00,SSW,196,4.0,9.0,84,0.00,,,-99.99,0.000000,,2013-02-26 12:11:00,
2013-02-26 04:22:00,26.0,22.0,-100.00,SSW,196,4.0,9.0,84,0.00,,,-99.99,0.000000,,2013-02-26 12:22:00,
2013-02-26 04:31:00,24.0,20.0,-100.00,SW,215,3.0,6.0,86,0.00,,,0.17,0.000000,,2013-02-26 12:31:00,
2013-02-26 04:53:00,24.0,20.0,-100.00,SW,215,3.0,6.0,86,0.00,,,0.17,0.000000,,2013-02-26 12:53:00,
2013-02-26 05:01:00,24.0,20.0,-100.00,SW,215,3.0,6.0,86,0.00,,,0.17,0.000000,,2013-02-26 13:01:00,
2013-02-26 05:11:00,24.0,20.0,-100.00,SW,215,3.0,6.0,86,0.00,,,0.17,0.000000,,2013-02-26 13:11:00,
2013-02-26 05:21:00,24.0,20.0,-100.00,SW,215,3.0,6.0,86,0.00,,,0.17,0.000000,,2013-02-26 13:21:00,
2013-02-26 05:31:00,23.0,20.0,-100.00,SW,217,3.0,6.0,88,0.00,,,0.17,0.000000,,2013-02-26 13:31:00,
2013-02-26 05:52:00,23.0,20.0,-100.00,SW,217,3.0,6.0,88,0.00,,,0.17,0.000000,,2013-02-26 13:52:00,
2013-02-26 06:01:00,23.0,20.0,-100.00,SW,217,3.0,6.0,88,0.00,,,0.17,0.000000,,2013-02-26 14:01:00,
2013-02-26 06:11:00,23.0,20.0,-100.00,SW,217,3.0,6.0,88,0.00,,,0.17,0.000000,,2013-02-26 14:11:00,
2013-02-26 06:21:00,23.0,20.0,-100.00,SW,217,3.0,6.0,88,0.00,,,0.17,0.000000,,2013-02-26 14:21:00,
2013-02-26 06:31:00,22.0,19.0,-100.00,South,178,3.0,5.0,87,0.00,,,-99.99,0.000000,,2013-02-26 14:31:00,
2013-02-26 06:52:00,22.0,19.0,-100.00,South,178,3.0,5.0,87,0.00,,,-99.99,0.000000,,2013-02-26 14:52:00,
2013-02-26 07:02:00,22.0,19.0,-100.00,South,178,3.0,5.0,87,0.00,,,-99.99,0.000000,,2013-02-26 15:02:00,
2013-02-26 07:11:00,22.0,19.0,-100.00,South,178,3.0,5.0,87,0.00,,,-99.99,0.000000,,2013-02-26 15:11:00,
2013-02-26 07:21:00,22.0,19.0,-100.00,South,178,3.0,5.0,87,0.00,,,-99.99,0.000000,,2013-02-26 15:21:00,
2013-02-26 07:31:00,22.0,20.0,-100.00,NNW,335,1.0,5.0,90,0.00,,,0.17,3.000000,,2013-02-26 15:31:00,
2013-02-26 07:52:00,22.0,20.0,-100.00,NNW,335,1.0,5.0,90,0.00,,,0.17,3.000000,,2013-02-26 15:52:00,
2013-02-26 08:01:00,22.0,20.0,-100.00,NNW,335,1.0,5.0,90,0.00,,,0.17,3.000000,,2013-02-26 16:01:00,
2013-02-26 08:11:00,22.0,20.0,-100.00,NNW,335,1.0,5.0,90,0.00,,,0.17,3.000000,,2013-02-26 16:11:00,
2013-02-26 08:22:00,22.0,20.0,-100.00,NNW,335,1.0,5.0,90,0.00,,,0.17,3.000000,,2013-02-26 16:22:00,
2013-02-26 08:31:00,30.0,25.0,-100.00,South,191,4.0,6.0,80,0.00,,,0.17,46.000000,,2013-02-26 16:31:00,
2013-02-26 08:52:00,30.0,25.0,-100.00,South,191,4.0,6.0,80,0.00,,,0.17,46.000000,,2013-02-26 16:52:00,
2013-02-26 09:01:00,30.0,25.0,-100.00,South,191,4.0,6.0,80,0.00,,,0.17,46.000000,,2013-02-26 17:01:00,
2013-02-26 09:11:00,30.0,25.0,-100.00,South,191,4.0,6.0,80,0.00,,,0.17,46.000000,,2013-02-26 17:11:00,
2013-02-26 09:21:00,30.0,25.0,-100.00,South,191,4.0,6.0,80,0.00,,,0.17,46.000000,,2013-02-26 17:21:00,
2013-02-26 09:31:00,33.0,23.0,-100.00,SW,218,5.0,7.0,65,0.04,,,0.16,138.000000,,2013-02-26 17:31:00,
2013-02-26 09:52:00,33.0,23.0,-100.00,SW,218,5.0,7.0,65,0.04,,,0.16,138.000000,,2013-02-26 17:52:00,
2013-02-26 10:01:00,33.0,23.0,-100.00,SW,218,5.0,7.0,65,0.04,,,0.16,138.000000,,2013-02-26 18:01:00,
2013-02-26 10:12:00,33.0,23.0,-100.00,SW,218,5.0,7.0,65,0.04,,,0.16,138.000000,,2013-02-26 18:12:00,
2013-02-26 10:21:00,33.0,23.0,-100.00,SW,218,5.0,7.0,65,0.04,,,0.16,138.000000,,2013-02-26 18:21:00,
2013-02-26 10:31:00,35.0,23.0,-100.00,South,177,6.0,9.0,60,0.02,,,0.15,405.000000,,2013-02-26 18:31:00,
2013-02-26 10:52:00,35.0,23.0,-100.00,South,177,6.0,9.0,60,0.02,,,0.15,405.000000,,2013-02-26 18:52:00,
2013-02-26 11:01:00,35.0,23.0,-100.00,South,177,6.0,9.0,60,0.02,,,0.15,405.000000,,2013-02-26 19:01:00,
2013-02-26 11:11:00,35.0,23.0,-100.00,South,177,6.0,9.0,60,0.02,,,0.15,405.000000,,2013-02-26 19:11:00,
2013-02-26 11:22:00,35.0,23.0,-100.00,South,177,6.0,9.0,60,0.02,,,0.15,405.000000,,2013-02-26 19:22:00,
2013-02-26 11:31:00,39.0,22.0,-100.00,South,187,5.0,10.0,50,0.01,,,0.12,519.000000,,2013-02-26 19:31:00,
2013-02-26 11:52:00,39.0,22.0,-100.00,South,187,5.0,10.0,50,0.01,,,0.12,519.000000,,2013-02-26 19:52:00,
2013-02-26 12:01:00,39.0,22.0,-100.00,South,187,5.0,10.0,50,0.01,,,0.12,519.000000,,2013-02-26 20:01:00,
2013-02-26 12:11:00,39.0,22.0,-100.00,South,187,5.0,10.0,50,0.01,,,0.12,519.000000,,2013-02-26 20:11:00,
2013-02-26 12:21:00,39.0,22.0,-100.00,South,187,5.0,10.0,50,0.01,,,0.12,519.000000,,2013-02-26 20:21:00,
2013-02-26 13:31:00,43.0,19.0,-100.00,SSW,199,6.0,11.0,38,-99.99,,,0.07,509.000000,,2013-02-26 21:31:00,
2013-02-26 13:51:00,43.0,19.0,-100.00,SSW,199,6.0,11.0,38,-99.99,,,0.07,509.000000,,2013-02-26 21:51:00,
2013-02-26 14:01:00,43.0,19.0,-100.00,SSW,199,6.0,11.0,38,-99.99,,,0.07,509.000000,,2013-02-26 22:01:00,
2013-02-26 14:11:00,43.0,19.0,-100.00,SSW,199,6.0,11.0,38,-99.99,,,0.07,509.000000,,2013-02-26 22:11:00,
2013-02-26 14:21:00,43.0,19.0,-100.00,SSW,199,6.0,11.0,38,-99.99,,,0.07,509.000000,,2013-02-26 22:21:00,
2013-02-26 14:31:00,43.0,16.0,-100.00,SSW,199,4.0,10.0,33,0.00,,,0.07,373.000000,,2013-02-26 22:31:00,
2013-02-26 14:52:00,43.0,16.0,-100.00,SSW,199,4.0,10.0,33,0.00,,,0.07,373.000000,,2013-02-26 22:52:00,
2013-02-26 15:01:00,43.0,16.0,-100.00,SSW,199,4.0,10.0,33,0.00,,,0.07,373.000000,,2013-02-26 23:01:00,
2013-02-26 15:11:00,43.0,16.0,-100.00,SSW,199,4.0,10.0,33,0.00,,,0.07,373.000000,,2013-02-26 23:11:00,
2013-02-26 15:21:00,43.0,16.0,-100.00,SSW,199,4.0,10.0,33,0.00,,,0.07,373.000000,,2013-02-26 23:21:00,
2013-02-26 15:52:00,43.0,16.0,-100.00,SSW,210,3.0,9.0,33,0.00,,,0.07,273.000000,,2013-02-26 23:52:00,
2013-02-26 16:01:00,43.0,16.0,-100.00,SSW,210,3.0,9.0,33,0.00,,,0.07,273.000000,,2013-02-27 00:01:00,
2013-02-26 16:11:00,43.0,16.0,-100.00,SSW,210,3.0,9.0,33,0.00,,,0.07,273.000000,,2013-02-27 00:11:00,
2013-02-26 16:21:00,43.0,16.0,-100.00,SSW,210,3.0,9.0,33,0.00,,,0.07,273.000000,,2013-02-27 00:21:00,
2013-02-26 16:31:00,42.0,18.0,-100.00,SSW,203,4.0,7.0,37,0.00,,,0.07,158.000000,,2013-02-27 00:31:00,
2013-02-26 16:52:00,42.0,18.0,-100.00,SSW,203,4.0,7.0,37,0.00,,,0.07,158.000000,,2013-02-27 00:52:00,
2013-02-26 17:01:00,42.0,18.0,-100.00,SSW,203,4.0,7.0,37,0.00,,,0.07,158.000000,,2013-02-27 01:01:00,
2013-02-26 17:11:00,42.0,18.0,-100.00,SSW,203,4.0,7.0,37,0.00,,,0.07,158.000000,,2013-02-27 01:11:00,
2013-02-26 17:21:00,42.0,18.0,-100.00,SSW,203,4.0,7.0,37,0.00,,,0.07,158.000000,,2013-02-27 01:21:00,
2013-02-26 17:31:00,40.0,18.0,-100.00,South,185,3.0,5.0,41,0.00,,,0.07,89.000000,,2013-02-27 01:31:00,
2013-02-26 17:52:00,40.0,18.0,-100.00,South,185,3.0,5.0,41,0.00,,,0.07,89.000000,,2013-02-27 01:52:00,
2013-02-26 18:01:00,40.0,18.0,-100.00,South,185,3.0,5.0,41,0.00,,,0.07,89.000000,,2013-02-27 02:01:00,
2013-02-26 18:13:00,40.0,18.0,-100.00,South,185,3.0,5.0,41,0.00,,,0.07,89.000000,,2013-02-27 02:13:00,
2013-02-26 18:22:00,40.0,18.0,-100.00,South,185,3.0,5.0,41,0.00,,,0.07,89.000000,,2013-02-27 02:22:00,
2013-02-26 18:31:00,37.0,19.0,-100.00,West,263,2.0,5.0,47,0.00,,,0.07,3.000000,,2013-02-27 02:31:00,
2013-02-26 18:52:00,37.0,19.0,-100.00,West,263,2.0,5.0,47,0.00,,,0.07,3.000000,,2013-02-27 02:52:00,
2013-02-26 19:01:00,37.0,19.0,-100.00,West,263,2.0,5.0,47,0.00,,,0.07,3.000000,,2013-02-27 03:01:00,
2013-02-26 19:11:00,37.0,19.0,-100.00,West,263,2.0,5.0,47,0.00,,,0.07,3.000000,,2013-02-27 03:11:00,
2013-02-26 19:21:00,37.0,19.0,-100.00,West,263,2.0,5.0,47,0.00,,,0.07,3.000000,,2013-02-27 03:21:00,
2013-02-26 19:52:00,38.0,15.0,-100.00,South,172,6.0,11.0,38,0.00,,,0.07,0.000000,,2013-02-27 03:52:00,
2013-02-26 20:01:00,38.0,15.0,-100.00,South,172,6.0,11.0,38,0.00,,,0.07,0.000000,,2013-02-27 04:01:00,
2013-02-26 20:52:00,38.0,12.0,-100.00,WSW,253,3.0,9.0,34,0.00,,,-99.99,0.000000,,2013-02-27 04:52:00,
2013-02-26 21:01:00,38.0,12.0,-100.00,WSW,253,3.0,9.0,34,0.00,,,-99.99,0.000000,,2013-02-27 05:01:00,
2013-02-26 21:52:00,36.0,10.0,-100.00,SSW,205,4.0,15.0,33,0.00,,,0.07,0.000000,,2013-02-27 05:52:00,
2013-02-26 22:02:00,36.0,10.0,-100.00,SSW,205,4.0,15.0,33,0.00,,,0.07,0.000000,,2013-02-27 06:02:00,
2013-02-26 22:52:00,35.0,11.0,-100.00,South,190,5.0,10.0,37,0.00,,,0.07,0.000000,,2013-02-27 06:52:00,
2013-02-26 23:01:00,35.0,11.0,-100.00,South,190,5.0,10.0,37,0.00,,,0.07,0.000000,,2013-02-27 07:01:00,
2013-02-26 23:52:00,35.0,14.0,-100.00,South,182,7.0,11.0,41,0.00,,,0.07,0.000000,,2013-02-27 07:52:00,